createdAt,value
2019-02-17T00:00:50.172Z,25.03
2019-02-17T00:02:51.833Z,24.00
2019-02-17T00:04:53.486Z,27.13
2019-02-17T00:06:55.158Z,21.63
2019-02-17T00:08:56.864Z,20.63
2019-02-17T00:10:58.537Z,25.47
2019-02-17T00:13:00.195Z,28.27
2019-02-17T00:15:02.086Z,26.27
2019-02-17T00:17:03.745Z,22.70
2019-02-17T00:19:05.408Z,30.40
2019-02-17T00:21:07.073Z,21.43
2019-02-17T00:23:08.724Z,28.33
2019-02-17T00:25:10.376Z,26.47
2019-02-17T00:27:12.043Z,24.33
2019-02-17T00:29:13.701Z,21.87
2019-02-17T00:31:15.369Z,22.83
2019-02-17T00:33:17.009Z,23.20
2019-02-17T00:35:18.669Z,22.57
2019-02-17T00:37:20.337Z,21.63
2019-02-17T00:39:22.001Z,24.17
2019-02-17T00:41:23.661Z,21.60
2019-02-17T00:43:25.322Z,20.43
2019-02-17T00:45:27.266Z,20.73
2019-02-17T00:47:28.944Z,17.80
2019-02-17T00:49:30.596Z,17.83
2019-02-17T00:51:32.257Z,18.10
2019-02-17T00:53:33.918Z,15.30
2019-02-17T00:55:35.565Z,14.10
2019-02-17T00:57:37.233Z,16.13
2019-02-17T00:59:38.887Z,17.03
2019-02-17T01:01:40.576Z,15.13
2019-02-17T01:03:42.224Z,21.13
2019-02-17T01:05:44.195Z,15.23
2019-02-17T01:07:45.851Z,17.43
2019-02-17T01:09:47.501Z,14.07
2019-02-17T01:11:49.174Z,14.00
2019-02-17T01:13:50.820Z,23.13
2019-02-17T01:15:52.737Z,17.03
2019-02-17T01:17:54.417Z,18.97
2019-02-17T01:19:56.063Z,14.70
2019-02-17T01:21:57.717Z,14.87
2019-02-17T01:23:59.618Z,21.00
2019-02-17T01:26:01.303Z,16.97
2019-02-17T01:28:02.953Z,15.37
2019-02-17T01:30:05.369Z,19.03
2019-02-17T01:32:07.034Z,14.97
2019-02-17T01:34:09.594Z,19.67
2019-02-17T01:36:11.242Z,18.70
2019-02-17T01:38:13.017Z,17.17
2019-02-17T01:40:14.662Z,16.43
2019-02-17T01:42:16.313Z,16.73
2019-02-17T01:44:17.965Z,20.30
2019-02-17T01:46:19.621Z,19.40
2019-02-17T01:48:21.542Z,22.00
2019-02-17T01:50:23.199Z,19.83
2019-02-17T01:52:24.857Z,17.10
2019-02-17T01:54:26.762Z,16.60
2019-02-17T01:56:28.396Z,17.60
2019-02-17T01:58:30.056Z,11.00
2019-02-17T02:00:31.717Z,14.50
2019-02-17T02:02:33.376Z,15.97
2019-02-17T02:04:35.296Z,14.77
2019-02-17T02:06:36.980Z,14.90
2019-02-17T02:08:38.980Z,23.67
2019-02-17T02:10:40.932Z,19.67
2019-02-17T02:12:42.600Z,25.80
2019-02-17T02:14:44.504Z,20.87
2019-02-17T02:16:46.161Z,23.87
2019-02-17T02:18:47.836Z,20.60
2019-02-17T02:20:49.497Z,19.43
2019-02-17T02:22:51.157Z,22.30
2019-02-17T02:24:52.818Z,18.90
2019-02-17T02:26:54.472Z,24.80
2019-02-17T02:28:56.142Z,25.23
2019-02-17T02:30:57.798Z,23.03
2019-02-17T02:32:59.791Z,20.20
2019-02-17T02:35:01.575Z,20.63
2019-02-17T02:37:03.746Z,19.70
2019-02-17T02:39:05.770Z,21.60
2019-02-17T02:41:07.430Z,17.30
2019-02-17T02:43:09.408Z,23.33
2019-02-17T02:45:11.065Z,18.90
2019-02-17T02:47:12.957Z,20.13
2019-02-17T02:49:14.625Z,29.60
2019-02-17T02:51:16.279Z,21.97
2019-02-17T02:53:18.249Z,19.60
2019-02-17T02:55:19.898Z,22.50
2019-02-17T02:57:21.557Z,19.53
2019-02-17T02:59:23.226Z,21.13
2019-02-17T03:01:24.881Z,21.27
2019-02-17T03:03:26.553Z,18.87
2019-02-17T03:05:28.231Z,28.43
2019-02-17T03:07:30.017Z,28.23
2019-02-17T03:09:31.684Z,24.83
2019-02-17T03:11:33.344Z,21.00
2019-02-17T03:13:35.009Z,34.20
2019-02-17T03:15:36.669Z,25.07
2019-02-17T03:17:38.320Z,19.57
2019-02-17T03:19:40.000Z,22.10
2019-02-17T03:21:41.981Z,24.33
2019-02-17T03:23:43.641Z,28.70
2019-02-17T03:25:45.542Z,26.53
2019-02-17T03:27:47.628Z,25.27
2019-02-17T03:29:49.293Z,25.57
2019-02-17T03:31:50.926Z,27.17
2019-02-17T03:33:52.615Z,25.90
2019-02-17T03:35:54.341Z,29.70
2019-02-17T03:37:55.997Z,25.63
2019-02-17T03:39:57.662Z,28.23
2019-02-17T03:41:59.312Z,39.47
2019-02-17T03:44:00.997Z,30.33
2019-02-17T03:46:02.645Z,33.07
2019-02-17T03:48:04.302Z,26.80
2019-02-17T03:50:06.012Z,31.20
2019-02-17T03:52:07.661Z,27.87
2019-02-17T03:54:09.573Z,24.37
2019-02-17T03:56:11.226Z,24.07
2019-02-17T03:58:12.883Z,21.73
2019-02-17T04:00:17.183Z,23.40
2019-02-17T04:02:18.373Z,27.60
2019-02-17T04:04:20.041Z,23.90
2019-02-17T04:06:21.940Z,22.23
2019-02-17T04:08:23.600Z,23.67
2019-02-17T04:10:25.269Z,25.07
2019-02-17T04:12:26.926Z,29.40
2019-02-17T04:14:28.585Z,34.27
2019-02-17T04:16:30.247Z,25.20
2019-02-17T04:18:31.919Z,28.30
2019-02-17T04:20:33.865Z,33.33
2019-02-17T04:22:35.522Z,26.60
2019-02-17T04:24:37.513Z,26.13
2019-02-17T04:26:39.164Z,28.07
2019-02-17T04:28:40.821Z,24.63
2019-02-17T04:30:42.488Z,31.33
2019-02-17T04:32:44.149Z,27.50
2019-02-17T04:34:45.817Z,24.83
2019-02-17T04:36:47.472Z,19.90
2019-02-17T04:38:49.136Z,18.40
2019-02-17T04:40:50.890Z,21.50
2019-02-17T04:42:52.568Z,23.40
2019-02-17T04:44:54.220Z,30.87
2019-02-17T04:46:56.210Z,24.97
2019-02-17T04:48:58.144Z,27.90
2019-02-17T04:50:59.814Z,24.60
2019-02-17T04:53:01.781Z,27.20
2019-02-17T04:55:03.484Z,26.83
2019-02-17T04:57:05.165Z,24.87
2019-02-17T04:59:06.812Z,25.43
2019-02-17T05:01:08.483Z,23.63
2019-02-17T05:03:10.420Z,30.80
2019-02-17T05:05:12.399Z,17.80
2019-02-17T05:07:14.053Z,25.00
2019-02-17T05:09:15.707Z,28.80
2019-02-17T05:11:17.417Z,29.93
2019-02-17T05:13:19.306Z,26.07
2019-02-17T05:15:21.266Z,22.93
2019-02-17T05:17:22.917Z,28.83
2019-02-17T05:19:24.586Z,30.13
2019-02-17T05:21:26.544Z,25.97
2019-02-17T05:23:28.458Z,32.67
2019-02-17T05:25:30.120Z,34.03
2019-02-17T05:27:31.802Z,27.90
2019-02-17T05:29:33.457Z,28.97
2019-02-17T05:31:35.122Z,26.67
2019-02-17T05:33:36.774Z,29.37
2019-02-17T05:35:38.441Z,31.60
2019-02-17T05:37:40.087Z,27.30
2019-02-17T05:39:41.732Z,27.50
2019-02-17T05:41:43.738Z,27.30
2019-02-17T05:43:45.712Z,23.63
2019-02-17T05:45:47.474Z,30.70
2019-02-17T05:47:49.125Z,27.50
2019-02-17T05:49:50.780Z,29.50
2019-02-17T05:51:52.700Z,27.63
2019-02-17T05:53:54.658Z,38.23
2019-02-17T05:55:56.320Z,25.17
2019-02-17T05:57:57.978Z,26.07
2019-02-17T05:59:59.631Z,22.30
2019-02-17T06:02:01.608Z,24.60
2019-02-17T06:04:03.274Z,24.57
2019-02-17T06:06:04.938Z,24.87
2019-02-17T06:08:06.586Z,27.73
2019-02-17T06:10:08.529Z,25.07
2019-02-17T06:12:10.197Z,31.67
2019-02-17T06:14:11.850Z,29.67
2019-02-17T06:16:13.530Z,30.30
2019-02-17T06:18:15.289Z,27.37
2019-02-17T06:20:16.941Z,28.93
2019-02-17T06:22:18.610Z,31.03
2019-02-17T06:24:20.610Z,30.33
2019-02-17T06:26:22.274Z,22.60
2019-02-17T06:28:23.930Z,20.60
2019-02-17T06:30:25.576Z,24.63
2019-02-17T06:32:27.244Z,26.63
2019-02-17T06:34:28.897Z,22.67
2019-02-17T06:36:30.560Z,27.87
2019-02-17T06:38:32.217Z,19.87
2019-02-17T06:40:33.869Z,23.63
2019-02-17T06:42:35.534Z,28.27
2019-02-17T06:44:37.181Z,30.13
2019-02-17T06:46:43.570Z,23.83
2019-02-17T06:48:45.228Z,24.00
2019-02-17T06:50:46.938Z,24.33
2019-02-17T06:52:48.605Z,27.97
2019-02-17T06:55:07.373Z,26.77
2019-02-17T06:57:13.649Z,25.10
2019-02-17T06:59:15.317Z,29.03
2019-02-17T07:01:24.433Z,23.90
2019-02-17T07:03:20.545Z,28.47
2019-02-17T07:05:28.854Z,26.63
2019-02-17T07:07:30.825Z,23.10
2019-02-17T07:09:32.727Z,33.60
2019-02-17T07:11:34.368Z,27.13
2019-02-17T07:13:36.028Z,30.00
2019-02-17T07:15:37.685Z,29.60
2019-02-17T07:17:39.697Z,30.50
2019-02-17T07:19:41.653Z,26.10
2019-02-17T07:21:43.567Z,30.37
2019-02-17T07:23:45.224Z,28.23
2019-02-17T07:25:46.880Z,32.00
2019-02-17T07:27:48.544Z,33.20
2019-02-17T07:29:50.193Z,28.93
2019-02-17T07:31:51.843Z,34.23
2019-02-17T07:33:53.497Z,33.77
2019-02-17T07:35:55.261Z,27.90
2019-02-17T07:37:56.933Z,27.67
2019-02-17T07:39:58.597Z,27.23
2019-02-17T07:42:00.258Z,29.20
2019-02-17T07:44:01.917Z,25.90
2019-02-17T07:46:03.608Z,28.30
2019-02-17T07:48:05.325Z,27.67
2019-02-17T07:50:07.218Z,27.80
2019-02-17T07:52:08.862Z,34.40
2019-02-17T07:54:10.530Z,33.87
2019-02-17T07:56:12.460Z,34.17
2019-02-17T07:58:14.129Z,44.50
2019-02-17T08:00:15.786Z,32.73
2019-02-17T08:02:17.440Z,33.93
2019-02-17T08:04:19.109Z,25.07
2019-02-17T08:06:20.761Z,28.80
2019-02-17T08:08:22.433Z,31.07
2019-02-17T08:10:24.080Z,25.80
2019-02-17T08:12:25.729Z,28.10
2019-02-17T08:14:27.753Z,29.40
2019-02-17T08:16:29.405Z,28.17
2019-02-17T08:18:31.800Z,28.47
2019-02-17T08:20:33.749Z,34.80
2019-02-17T08:22:35.397Z,27.77
2019-02-17T08:24:37.057Z,35.77
2019-02-17T08:26:38.728Z,32.90
2019-02-17T08:28:42.588Z,27.20
2019-02-17T08:30:44.237Z,29.53
2019-02-17T08:32:45.881Z,34.90
2019-02-17T08:34:47.530Z,37.07
2019-02-17T08:36:49.173Z,30.07
2019-02-17T08:38:50.823Z,30.93
2019-02-17T08:40:52.475Z,29.77
2019-02-17T08:42:54.117Z,31.30
2019-02-17T08:44:55.773Z,35.10
2019-02-17T08:46:57.418Z,35.20
2019-02-17T08:48:59.076Z,32.67
2019-02-17T08:51:00.728Z,32.77
2019-02-17T08:53:02.407Z,37.63
2019-02-17T08:55:05.244Z,43.33
2019-02-17T08:57:06.901Z,42.13
2019-02-17T08:59:08.573Z,41.13
2019-02-17T09:01:10.591Z,35.03
2019-02-17T09:03:12.303Z,44.20
2019-02-17T09:05:14.263Z,42.50
2019-02-17T09:07:15.913Z,36.93
2019-02-17T09:09:17.568Z,42.50
2019-02-17T09:11:19.232Z,42.50
2019-02-17T09:13:20.878Z,40.30
2019-02-17T09:15:22.541Z,38.83
2019-02-17T09:17:24.193Z,33.70
2019-02-17T09:19:25.862Z,39.67
2019-02-17T09:21:27.769Z,35.47
2019-02-17T09:23:29.766Z,43.53
2019-02-17T09:25:31.423Z,42.87
2019-02-17T09:27:33.069Z,39.30
2019-02-17T09:29:34.732Z,37.27
2019-02-17T09:31:36.380Z,34.83
2019-02-17T09:33:38.341Z,38.83
2019-02-17T09:35:40.004Z,34.47
2019-02-17T09:37:42.002Z,39.57
2019-02-17T09:39:43.666Z,32.60
2019-02-17T09:41:45.317Z,32.87
2019-02-17T09:43:46.960Z,36.93
2019-02-17T09:45:48.617Z,32.30
2019-02-17T09:47:50.517Z,36.40
2019-02-17T09:52:55.196Z,30.23
2019-02-17T09:54:56.848Z,36.97
2019-02-17T09:56:58.492Z,34.07
2019-02-17T09:59:00.143Z,33.73
2019-02-17T10:01:01.872Z,39.10
2019-02-17T10:03:03.511Z,34.23
2019-02-17T10:05:05.335Z,36.03
2019-02-17T10:07:06.969Z,36.90
2019-02-17T10:09:08.623Z,41.43
2019-02-17T10:11:10.258Z,37.00
2019-02-17T10:13:11.900Z,36.50
2019-02-17T10:15:13.564Z,39.00
2019-02-17T10:17:15.208Z,36.20
2019-02-17T10:19:16.864Z,30.30
2019-02-17T10:21:18.510Z,35.90
2019-02-17T10:23:20.152Z,31.83
2019-02-17T10:25:21.812Z,37.20
2019-02-17T10:27:23.448Z,42.90
2019-02-17T10:29:25.204Z,35.83
2019-02-17T10:31:26.903Z,39.20
2019-02-17T10:33:28.557Z,34.30
2019-02-17T10:35:30.408Z,41.87
2019-02-17T10:37:32.071Z,37.53
2019-02-17T10:39:33.709Z,42.77
2019-02-17T10:41:35.404Z,40.43
2019-02-17T10:43:37.074Z,39.10
2019-02-17T10:45:38.762Z,37.57
2019-02-17T10:47:40.419Z,32.77
2019-02-17T10:49:42.049Z,35.03
2019-02-17T10:51:43.723Z,34.33
2019-02-17T10:53:45.940Z,37.53
2019-02-17T10:55:47.587Z,36.73
2019-02-17T10:57:49.271Z,44.00
2019-02-17T10:59:50.913Z,38.80
2019-02-17T11:01:52.564Z,33.17
2019-02-17T11:04:13.880Z,41.30
2019-02-17T11:06:15.791Z,39.73
2019-02-17T11:08:17.772Z,38.27
2019-02-17T11:10:19.418Z,38.17
2019-02-17T11:12:23.078Z,42.83
2019-02-17T11:14:24.634Z,33.33
2019-02-17T11:16:26.294Z,37.10
2019-02-17T11:18:27.939Z,33.27
2019-02-17T11:20:29.575Z,42.83
2019-02-17T11:22:31.231Z,36.40
2019-02-17T11:24:32.873Z,38.00
2019-02-17T11:26:34.518Z,37.87
2019-02-17T11:28:36.186Z,39.20
2019-02-17T11:30:37.836Z,38.90
2019-02-17T11:32:39.498Z,37.70
2019-02-17T11:34:41.486Z,36.30
2019-02-17T11:36:43.141Z,32.87
2019-02-17T11:38:44.803Z,36.27
2019-02-17T11:40:46.445Z,40.20
2019-02-17T11:42:48.105Z,35.17
2019-02-17T11:44:49.758Z,38.73
2019-02-17T11:46:51.408Z,37.20
2019-02-17T11:48:53.311Z,36.30
2019-02-17T11:50:55.207Z,43.93
2019-02-17T11:52:56.866Z,37.40
2019-02-17T11:54:58.510Z,34.13
2019-02-17T11:57:00.496Z,33.17
2019-02-17T11:59:02.149Z,35.83
2019-02-17T12:01:05.338Z,32.20
2019-02-17T12:03:08.382Z,43.00
2019-02-17T12:05:10.587Z,36.60
2019-02-17T12:07:12.482Z,39.57
2019-02-17T12:09:14.129Z,35.03
2019-02-17T12:11:15.792Z,36.83
2019-02-17T12:13:17.463Z,38.77
2019-02-17T12:15:19.110Z,35.33
2019-02-17T12:17:20.755Z,36.00
2019-02-17T12:19:22.413Z,34.57
2019-02-17T12:21:49.825Z,37.23
2019-02-17T12:24:10.372Z,40.40
2019-02-17T12:26:21.190Z,38.37
2019-02-17T12:28:35.525Z,35.20
2019-02-17T12:30:37.989Z,37.10
2019-02-17T12:32:39.656Z,42.70
2019-02-17T12:34:41.302Z,44.30
2019-02-17T12:36:43.277Z,42.80
2019-02-17T12:38:44.925Z,37.13
2019-02-17T12:40:46.559Z,37.93
2019-02-17T12:42:48.211Z,37.77
2019-02-17T12:44:49.844Z,38.23
2019-02-17T12:46:51.506Z,40.23
2019-02-17T12:48:53.172Z,37.53
2019-02-17T12:50:56.131Z,38.13
2019-02-17T12:52:57.767Z,33.63
2019-02-17T12:54:59.687Z,36.13
2019-02-17T12:57:01.331Z,35.80
2019-02-17T12:59:03.257Z,38.57
2019-02-17T13:01:04.911Z,37.20
2019-02-17T13:03:06.578Z,39.20
2019-02-17T13:05:08.725Z,38.97
2019-02-17T13:07:10.377Z,40.63
2019-02-17T13:09:12.078Z,38.67
2019-02-17T13:11:13.980Z,33.20
2019-02-17T13:13:15.641Z,47.97
2019-02-17T13:15:17.318Z,44.27
2019-02-17T13:17:18.961Z,33.83
2019-02-17T13:19:20.632Z,33.27
2019-02-17T13:21:22.860Z,35.50
2019-02-17T13:23:24.528Z,33.90
2019-02-17T13:25:26.173Z,35.87
2019-02-17T13:27:28.134Z,36.20
2019-02-17T13:29:29.776Z,37.50
2019-02-17T13:31:31.663Z,37.03
2019-02-17T13:33:39.199Z,41.20
2019-02-17T13:35:36.884Z,35.70
2019-02-17T13:37:38.558Z,32.83
2019-02-17T13:39:40.616Z,33.17
2019-02-17T13:41:42.311Z,37.90
2019-02-17T13:43:43.955Z,36.27
2019-02-17T13:45:45.604Z,36.80
2019-02-17T13:47:47.262Z,39.17
2019-02-17T13:49:48.908Z,34.87
2019-02-17T13:51:50.544Z,30.30
2019-02-17T13:53:52.205Z,34.20
2019-02-17T13:55:53.844Z,33.77
2019-02-17T13:57:55.511Z,33.17
2019-02-17T13:59:57.179Z,37.13
2019-02-17T14:01:58.835Z,33.13
2019-02-17T14:04:00.726Z,31.43
2019-02-17T14:06:02.681Z,30.17
2019-02-17T14:08:04.615Z,33.00
2019-02-17T14:10:07.424Z,35.43
2019-02-17T14:12:09.384Z,34.03
2019-02-17T14:14:11.036Z,32.70
2019-02-17T14:16:13.012Z,35.73
2019-02-17T14:18:14.679Z,40.53
2019-02-17T14:20:16.343Z,36.40
2019-02-17T14:22:17.975Z,39.40
2019-02-17T14:24:19.631Z,36.80
2019-02-17T14:26:21.296Z,35.53
2019-02-17T14:28:22.936Z,33.10
2019-02-17T14:30:24.852Z,34.57
2019-02-17T14:32:26.515Z,33.47
2019-02-17T14:34:28.183Z,39.50
2019-02-17T14:36:29.824Z,32.50
2019-02-17T14:38:31.484Z,43.60
2019-02-17T14:40:33.128Z,36.10
2019-02-17T14:42:34.776Z,33.97
2019-02-17T14:44:36.462Z,30.27
2019-02-17T14:46:38.118Z,34.27
2019-02-17T14:48:39.807Z,34.43
2019-02-17T14:50:41.465Z,30.77
2019-02-17T14:52:43.104Z,30.30
2019-02-17T14:54:45.035Z,32.50
2019-02-17T14:56:46.671Z,30.77
2019-02-17T14:58:48.324Z,34.50
2019-02-17T15:00:49.969Z,32.30
2019-02-17T15:02:51.612Z,33.80
2019-02-17T15:04:53.272Z,28.90
2019-02-17T15:06:54.917Z,30.90
2019-02-17T15:08:56.571Z,30.87
2019-02-17T15:10:58.212Z,34.30
2019-02-17T15:12:59.860Z,38.60
2019-02-17T15:15:01.525Z,31.13
2019-02-17T15:17:03.565Z,33.50
2019-02-17T15:19:05.246Z,33.00
2019-02-17T15:21:06.879Z,33.47
2019-02-17T15:23:08.525Z,33.90
2019-02-17T15:25:10.245Z,38.67
2019-02-17T15:27:11.970Z,32.93
2019-02-17T15:29:13.671Z,39.40
2019-02-17T15:34:30.992Z,38.23
2019-02-17T15:36:33.835Z,34.13
2019-02-17T15:38:35.720Z,31.50
2019-02-17T15:40:37.628Z,28.00
2019-02-17T15:42:39.536Z,41.50
2019-02-17T15:44:41.198Z,34.67
2019-02-17T15:46:43.128Z,30.90
2019-02-17T15:48:44.796Z,31.73
2019-02-17T15:50:46.444Z,34.17
2019-02-17T15:52:48.098Z,32.27
2019-02-17T15:54:49.821Z,34.77
2019-02-17T15:56:51.500Z,30.97
2019-02-17T15:58:53.205Z,27.43
2019-02-17T16:00:55.216Z,31.27
2019-02-17T16:02:57.103Z,25.93
2019-02-17T16:04:58.756Z,26.63
2019-02-17T16:07:00.671Z,28.60
2019-02-17T16:09:03.505Z,29.53
2019-02-17T16:11:05.420Z,30.70
2019-02-17T16:13:07.689Z,32.43
2019-02-17T16:15:11.528Z,28.90
2019-02-17T16:17:13.484Z,29.83
2019-02-17T16:19:15.432Z,30.27
2019-02-17T16:21:17.093Z,27.53
2019-02-17T16:23:18.813Z,25.33
2019-02-17T16:25:20.505Z,37.43
2019-02-17T16:27:22.141Z,29.97
2019-02-17T16:29:23.794Z,29.20
2019-02-17T16:31:25.440Z,29.27
2019-02-17T16:33:27.552Z,39.30
2019-02-17T16:35:29.195Z,33.00
2019-02-17T16:37:30.861Z,35.17
2019-02-17T16:39:32.528Z,31.33
2019-02-17T16:41:34.184Z,33.80
2019-02-17T16:43:35.833Z,28.30
2019-02-17T16:45:37.744Z,30.10
2019-02-17T16:47:39.706Z,28.70
2019-02-17T16:49:41.393Z,27.33
2019-02-17T16:51:43.322Z,32.97
2019-02-17T16:53:44.984Z,33.73
2019-02-17T16:55:46.644Z,34.97
2019-02-17T16:57:48.316Z,35.73
2019-02-17T16:59:49.957Z,34.20
2019-02-17T17:01:51.617Z,31.40
2019-02-17T17:03:53.260Z,36.00
2019-02-17T17:05:55.783Z,34.73
2019-02-17T17:07:57.528Z,33.53
2019-02-17T17:09:59.248Z,36.43
2019-02-17T17:12:01.196Z,35.73
2019-02-17T17:14:02.928Z,34.00
2019-02-17T17:16:04.576Z,44.27
2019-02-17T17:18:06.300Z,37.80
2019-02-17T17:20:08.229Z,40.23
2019-02-17T17:22:09.918Z,32.13
2019-02-17T17:24:11.590Z,35.50
2019-02-17T17:26:13.237Z,36.77
2019-02-17T17:28:14.896Z,31.97
2019-02-17T17:30:16.545Z,29.17
2019-02-17T17:32:18.211Z,34.13
2019-02-17T17:34:19.852Z,36.67
2019-02-17T17:36:21.609Z,38.93
2019-02-17T17:38:23.265Z,38.83
2019-02-17T17:40:24.954Z,32.40
2019-02-17T17:42:26.961Z,33.60
2019-02-17T17:44:28.720Z,34.27
2019-02-17T17:46:30.436Z,35.67
2019-02-17T17:48:32.084Z,43.17
2019-02-17T17:50:33.731Z,48.57
2019-02-17T17:52:35.388Z,43.90
2019-02-17T17:54:37.037Z,41.07
2019-02-17T17:56:38.712Z,44.03
2019-02-17T17:58:40.629Z,38.43
2019-02-17T18:00:43.552Z,33.47
2019-02-17T18:02:45.458Z,34.37
2019-02-17T18:04:47.133Z,37.80
2019-02-17T18:06:48.845Z,30.30
2019-02-17T18:08:50.554Z,27.90
2019-02-17T18:10:52.184Z,35.60
2019-02-17T18:12:54.190Z,29.53
2019-02-17T18:14:56.236Z,39.37
2019-02-17T18:16:57.961Z,26.20
2019-02-17T18:18:59.702Z,36.50
2019-02-17T18:21:01.344Z,48.23
2019-02-17T18:23:03.272Z,41.13
2019-02-17T18:25:04.960Z,39.77
2019-02-17T18:27:06.626Z,35.27
2019-02-17T18:29:08.264Z,35.37
2019-02-17T18:31:10.252Z,37.50
2019-02-17T18:33:11.920Z,38.10
2019-02-17T18:35:19.624Z,34.37
2019-02-17T18:37:17.188Z,36.90
2019-02-17T18:39:19.084Z,35.33
2019-02-17T18:41:20.741Z,44.13
2019-02-17T18:43:22.720Z,39.77
2019-02-17T18:45:24.369Z,37.73
2019-02-17T18:47:26.044Z,38.07
2019-02-17T18:49:27.684Z,32.90
2019-02-17T18:51:29.332Z,30.07
2019-02-17T18:53:30.997Z,41.27
2019-02-17T18:55:32.636Z,38.17
2019-02-17T18:57:34.552Z,40.67
2019-02-17T18:59:36.223Z,42.10
2019-02-17T19:01:37.868Z,42.93
2019-02-17T19:03:39.523Z,46.53
2019-02-17T19:05:41.179Z,43.80
2019-02-17T19:07:42.851Z,43.80
2019-02-17T19:09:44.480Z,42.57
2019-02-17T19:11:46.152Z,48.57
2019-02-17T19:13:47.808Z,47.80
2019-02-17T19:15:49.479Z,46.33
2019-02-17T19:17:51.149Z,47.13
2019-02-17T19:19:52.857Z,54.07
2019-02-17T19:21:54.744Z,59.60
2019-02-17T19:23:56.957Z,54.50
2019-02-17T19:25:58.604Z,55.40
2019-02-17T19:28:00.286Z,62.93
2019-02-17T19:30:02.288Z,55.77
2019-02-17T19:32:04.660Z,54.57
2019-02-17T19:34:06.302Z,118.63
2019-02-17T19:36:10.876Z,133.80
2019-02-17T19:38:12.526Z,115.77
2019-02-17T19:40:14.454Z,64.27
2019-02-17T19:42:16.116Z,51.37
2019-02-17T19:44:17.808Z,56.73
2019-02-17T19:46:19.452Z,53.47
2019-02-17T19:48:21.212Z,45.93
2019-02-17T19:50:22.849Z,47.63
2019-02-17T19:52:24.576Z,38.23
2019-02-17T19:54:26.220Z,40.87
2019-02-17T19:56:27.870Z,44.87
2019-02-17T19:58:29.788Z,49.27
2019-02-17T20:00:31.677Z,38.80
2019-02-17T20:02:52.478Z,49.00
2019-02-17T20:05:06.329Z,50.23
2019-02-17T20:07:07.974Z,49.97
2019-02-17T20:09:17.073Z,52.27
2019-02-17T20:11:18.793Z,65.23
2019-02-17T20:13:20.524Z,53.30
2019-02-17T20:15:24.456Z,57.43
2019-02-17T20:17:26.125Z,47.47
2019-02-17T20:19:28.075Z,48.50
2019-02-17T20:21:29.795Z,56.57
2019-02-17T20:23:31.504Z,49.67
2019-02-17T20:25:33.151Z,46.63
2019-02-17T20:27:34.808Z,41.13
2019-02-17T20:29:36.510Z,44.90
2019-02-17T20:31:38.248Z,45.50
2019-02-17T20:33:40.242Z,45.57
2019-02-17T20:35:41.886Z,40.70
2019-02-17T20:37:43.544Z,44.10
2019-02-17T20:39:45.212Z,37.40
2019-02-17T20:41:46.876Z,34.27
2019-02-17T20:43:48.525Z,44.13
2019-02-17T20:45:50.477Z,32.33
2019-02-17T20:47:52.132Z,40.03
2019-02-17T20:49:54.120Z,33.87
2019-02-17T20:51:56.073Z,29.93
2019-02-17T20:53:58.297Z,35.30
2019-02-17T20:56:00.064Z,31.27
2019-02-17T20:58:01.724Z,35.80
2019-02-17T21:00:03.713Z,31.90
2019-02-17T21:02:06.129Z,34.80
2019-02-17T21:04:07.784Z,35.83
2019-02-17T21:06:12.751Z,41.33
2019-02-17T21:08:13.012Z,32.20
2019-02-17T21:10:14.668Z,33.43
2019-02-17T21:12:16.616Z,34.50
2019-02-17T21:14:18.828Z,33.80
2019-02-17T21:16:20.721Z,26.27
2019-02-17T21:18:22.688Z,30.80
2019-02-17T21:20:24.741Z,33.00
2019-02-17T21:22:26.512Z,46.17
2019-02-17T21:24:28.174Z,35.60
2019-02-17T21:26:29.820Z,32.97
2019-02-17T21:28:31.484Z,34.70
2019-02-17T21:30:33.483Z,26.37
2019-02-17T21:32:35.244Z,25.87
2019-02-17T21:34:37.209Z,27.13
2019-02-17T21:36:38.872Z,27.20
2019-02-17T21:38:40.820Z,29.27
2019-02-17T21:40:42.565Z,30.80
2019-02-17T21:42:44.236Z,27.03
2019-02-17T21:44:45.884Z,26.03
2019-02-17T21:46:47.815Z,27.53
2019-02-17T21:48:49.468Z,28.00
2019-02-17T21:50:51.438Z,27.10
2019-02-17T21:52:53.252Z,31.67
2019-02-17T21:54:54.920Z,31.40
2019-02-17T21:56:56.573Z,26.07
2019-02-17T21:58:58.544Z,32.20
2019-02-17T22:01:00.536Z,24.87
2019-02-17T22:03:02.188Z,26.90
2019-02-17T22:05:03.916Z,24.17
2019-02-17T22:07:05.585Z,28.90
2019-02-17T22:09:07.255Z,29.47
2019-02-17T22:11:08.913Z,24.47
2019-02-17T22:13:10.581Z,24.30
2019-02-17T22:15:13.448Z,28.43
2019-02-17T22:17:15.354Z,26.93
2019-02-17T22:19:17.020Z,23.20
2019-02-17T22:21:18.905Z,25.50
2019-02-17T22:23:21.081Z,23.17
2019-02-17T22:25:23.029Z,25.07
2019-02-17T22:27:24.691Z,26.40
2019-02-17T22:29:26.345Z,26.80
2019-02-17T22:31:28.001Z,24.47
2019-02-17T22:33:29.648Z,22.10
2019-02-17T22:35:31.301Z,26.10
2019-02-17T22:37:32.949Z,24.70
2019-02-17T22:39:34.604Z,22.60
2019-02-17T22:41:36.573Z,23.30
2019-02-17T22:43:38.226Z,31.90
2019-02-17T22:45:39.886Z,24.53
2019-02-17T22:47:41.532Z,24.10
2019-02-17T22:49:43.192Z,25.53
2019-02-17T22:51:44.838Z,26.47
2019-02-17T22:53:46.493Z,30.80
2019-02-17T22:55:48.148Z,25.00
2019-02-17T22:57:49.793Z,29.17
2019-02-17T22:59:51.724Z,25.20
2019-02-17T23:01:53.372Z,27.13
2019-02-17T23:03:55.014Z,27.33
2019-02-17T23:05:56.683Z,27.50
2019-02-17T23:07:58.625Z,27.13
2019-02-17T23:10:00.378Z,26.17
2019-02-17T23:12:02.064Z,28.00
2019-02-17T23:14:04.279Z,25.70
2019-02-17T23:16:06.187Z,22.90
2019-02-17T23:18:07.832Z,26.30
2019-02-17T23:20:09.528Z,20.20
2019-02-17T23:22:11.160Z,22.27
2019-02-17T23:24:12.821Z,20.77
2019-02-17T23:26:14.470Z,22.37
2019-02-17T23:28:16.121Z,21.13
2019-02-17T23:30:17.785Z,24.43
2019-02-17T23:32:19.436Z,24.83
2019-02-17T23:34:21.100Z,31.93
2019-02-17T23:36:22.748Z,26.60
2019-02-17T23:38:24.412Z,28.70
2019-02-17T23:40:26.495Z,28.63
2019-02-17T23:42:28.133Z,27.47
2019-02-17T23:44:30.060Z,30.43
2019-02-17T23:46:31.708Z,25.33
2019-02-17T23:48:33.356Z,31.90
2019-02-17T23:50:35.012Z,24.60
2019-02-17T23:52:36.687Z,26.73
2019-02-17T23:54:38.343Z,22.97
2019-02-17T23:56:39.988Z,28.03
2019-02-17T23:58:41.640Z,28.23
